createdAt,value
2019-02-19T00:00:56.159Z,72.05
2019-02-19T00:03:25.575Z,72.34
2019-02-19T00:05:54.911Z,72.37
2019-02-19T00:08:24.279Z,72.15
2019-02-19T00:10:53.657Z,72.33
2019-02-19T00:13:23.010Z,71.61
2019-02-19T00:15:52.555Z,72.04
2019-02-19T00:18:21.887Z,72.01
2019-02-19T00:20:51.262Z,73.04
2019-02-19T00:23:20.693Z,73.11
2019-02-19T00:25:50.095Z,73.24
2019-02-19T00:28:19.496Z,72.73
2019-02-19T00:30:48.832Z,72.73
2019-02-19T00:33:18.153Z,73.63
2019-02-19T00:35:47.487Z,73.11
2019-02-19T00:38:16.823Z,73.13
2019-02-19T00:40:46.170Z,73.13
2019-02-19T00:43:15.531Z,73.50
2019-02-19T00:45:44.871Z,73.50
2019-02-19T00:48:14.222Z,72.93
2019-02-19T00:50:43.641Z,73.34
2019-02-19T00:53:12.971Z,73.84
2019-02-19T00:55:42.317Z,74.05
2019-02-19T00:58:11.619Z,73.39
2019-02-19T01:00:40.956Z,73.39
2019-02-19T01:03:10.299Z,74.00
2019-02-19T01:05:39.653Z,74.00
2019-02-19T01:08:09.070Z,73.75
2019-02-19T01:10:38.519Z,73.75
2019-02-19T01:13:07.886Z,74.51
2019-02-19T01:15:37.235Z,74.28
2019-02-19T01:18:07.125Z,74.88
2019-02-19T01:20:36.473Z,75.39
2019-02-19T01:23:05.797Z,75.26
2019-02-19T01:25:35.118Z,75.19
2019-02-19T01:28:04.542Z,74.88
2019-02-19T01:30:33.962Z,75.46
2019-02-19T01:33:03.368Z,75.83
2019-02-19T01:35:32.792Z,75.33
2019-02-19T01:38:02.222Z,75.77
2019-02-19T01:40:31.564Z,75.79
2019-02-19T01:43:00.894Z,75.73
2019-02-19T01:45:34.137Z,75.51
2019-02-19T01:48:01.338Z,74.87
2019-02-19T01:50:30.707Z,74.71
2019-02-19T01:53:00.121Z,75.20
2019-02-19T01:55:29.466Z,74.49
2019-02-19T01:57:58.798Z,73.80
2019-02-19T02:00:28.271Z,74.11
2019-02-19T02:02:57.618Z,74.03
2019-02-19T02:05:27.047Z,74.03
2019-02-19T02:07:56.381Z,73.86
2019-02-19T02:10:25.715Z,73.70
2019-02-19T02:12:55.072Z,73.69
2019-02-19T02:15:24.457Z,75.18
2019-02-19T02:17:53.815Z,75.83
2019-02-19T02:20:23.151Z,76.17
2019-02-19T02:22:52.502Z,76.10
2019-02-19T02:25:21.851Z,76.37
2019-02-19T02:27:51.187Z,75.87
2019-02-19T02:30:20.551Z,75.88
2019-02-19T02:32:49.872Z,75.94
2019-02-19T02:35:19.197Z,76.53
2019-02-19T02:37:48.531Z,75.59
2019-02-19T02:40:17.891Z,75.26
2019-02-19T02:42:47.251Z,76.10
2019-02-19T02:45:16.587Z,76.15
2019-02-19T02:47:45.919Z,76.62
2019-02-19T02:50:15.269Z,76.30
2019-02-19T02:52:44.627Z,76.71
2019-02-19T02:55:13.964Z,76.92
2019-02-19T02:57:43.399Z,76.83
2019-02-19T03:00:13.272Z,77.34
2019-02-19T03:02:42.585Z,77.51
2019-02-19T03:05:11.906Z,77.43
2019-02-19T03:07:44.390Z,77.15
2019-02-19T03:10:13.712Z,77.17
2019-02-19T03:12:43.105Z,77.35
2019-02-19T03:15:12.925Z,77.10
2019-02-19T03:17:42.262Z,77.57
2019-02-19T03:20:11.706Z,77.50
2019-02-19T03:22:41.124Z,77.78
2019-02-19T03:25:10.547Z,78.46
2019-02-19T03:27:39.907Z,78.56
2019-02-19T03:30:10.954Z,78.64
2019-02-19T03:32:40.390Z,78.92
2019-02-19T03:35:09.773Z,80.10
2019-02-19T03:37:39.180Z,80.42
2019-02-19T03:40:08.898Z,80.49
2019-02-19T03:42:38.260Z,80.53
2019-02-19T03:45:09.144Z,80.71
2019-02-19T03:47:38.503Z,80.73
2019-02-19T03:50:07.927Z,80.49
2019-02-19T03:52:37.314Z,80.53
2019-02-19T03:55:06.707Z,80.59
2019-02-19T03:57:36.267Z,80.71
2019-02-19T04:00:05.877Z,80.86
2019-02-19T04:02:35.266Z,81.10
2019-02-19T04:05:04.587Z,80.82
2019-02-19T04:07:33.935Z,80.68
2019-02-19T04:10:03.386Z,80.77
2019-02-19T04:12:32.780Z,80.69
2019-02-19T04:15:02.113Z,80.94
2019-02-19T04:17:31.493Z,81.29
2019-02-19T04:20:00.884Z,81.23
2019-02-19T04:22:30.252Z,82.82
2019-02-19T04:24:59.603Z,83.25
2019-02-19T04:27:28.935Z,79.88
2019-02-19T04:29:58.302Z,79.39
2019-02-19T04:32:27.633Z,80.12
2019-02-19T04:34:56.976Z,80.73
2019-02-19T04:37:26.306Z,80.53
2019-02-19T04:39:55.639Z,80.96
2019-02-19T04:42:25.177Z,81.44
2019-02-19T04:44:54.513Z,81.27
2019-02-19T04:47:23.860Z,81.02
2019-02-19T04:49:53.202Z,82.03
2019-02-19T04:52:22.544Z,82.03
2019-02-19T04:54:51.879Z,81.68
2019-02-19T04:57:21.257Z,81.62
2019-02-19T04:59:50.679Z,82.08
2019-02-19T05:02:20.150Z,82.25
2019-02-19T05:04:49.586Z,81.51
2019-02-19T05:07:18.933Z,81.23
2019-02-19T05:09:48.735Z,81.39
2019-02-19T05:12:18.083Z,82.10
2019-02-19T05:14:47.438Z,81.87
2019-02-19T05:17:16.778Z,81.68
2019-02-19T05:19:46.125Z,81.84
2019-02-19T05:22:15.469Z,81.04
2019-02-19T05:24:44.841Z,80.92
2019-02-19T05:27:14.192Z,80.93
2019-02-19T05:29:43.552Z,81.21
2019-02-19T05:32:12.922Z,81.08
2019-02-19T05:34:42.317Z,81.08
2019-02-19T05:37:11.667Z,81.34
2019-02-19T05:39:41.017Z,80.16
2019-02-19T05:42:10.465Z,79.56
2019-02-19T05:44:39.788Z,78.26
2019-02-19T05:47:09.167Z,77.42
2019-02-19T05:49:38.507Z,76.37
2019-02-19T05:52:08.364Z,75.58
2019-02-19T05:54:37.718Z,74.82
2019-02-19T05:57:07.061Z,74.14
2019-02-19T05:59:36.380Z,73.81
2019-02-19T06:02:05.707Z,72.74
2019-02-19T06:04:35.092Z,71.82
2019-02-19T06:07:04.559Z,70.25
2019-02-19T06:09:33.930Z,68.96
2019-02-19T06:12:03.262Z,68.01
2019-02-19T06:14:32.607Z,67.63
2019-02-19T06:17:01.937Z,67.78
2019-02-19T06:19:31.247Z,67.40
2019-02-19T06:22:00.569Z,67.63
2019-02-19T06:24:29.886Z,65.62
2019-02-19T06:26:59.364Z,64.62
2019-02-19T06:29:28.731Z,64.30
2019-02-19T06:31:58.087Z,64.19
2019-02-19T06:34:27.474Z,63.70
2019-02-19T06:36:56.827Z,62.60
2019-02-19T06:39:26.192Z,63.40
2019-02-19T06:41:55.553Z,63.95
2019-02-19T06:44:24.942Z,63.39
2019-02-19T06:46:54.294Z,62.48
2019-02-19T06:49:23.774Z,61.86
2019-02-19T06:51:55.736Z,61.05
2019-02-19T06:54:25.047Z,60.86
2019-02-19T06:56:54.394Z,59.30
2019-02-19T06:59:23.845Z,58.68
2019-02-19T07:02:18.102Z,59.78
2019-02-19T07:04:51.345Z,60.09
2019-02-19T07:07:20.666Z,59.38
2019-02-19T07:09:50.010Z,57.21
2019-02-19T07:12:19.365Z,57.63
2019-02-19T07:14:48.721Z,56.21
2019-02-19T07:17:18.053Z,55.86
2019-02-19T07:19:47.671Z,56.48
2019-02-19T07:22:17.004Z,57.08
2019-02-19T07:24:46.375Z,57.42
2019-02-19T07:27:15.987Z,56.73
2019-02-19T07:29:45.336Z,55.98
2019-02-19T07:32:14.755Z,56.75
2019-02-19T07:34:44.453Z,56.69
2019-02-19T07:37:13.797Z,57.10
2019-02-19T07:39:43.126Z,56.35
2019-02-19T07:42:12.530Z,56.08
2019-02-19T07:44:41.870Z,55.66
2019-02-19T07:47:11.361Z,55.53
2019-02-19T07:49:40.786Z,55.86
2019-02-19T07:52:10.149Z,56.61
2019-02-19T07:54:39.512Z,58.03
2019-02-19T07:57:08.835Z,57.24
2019-02-19T07:59:38.139Z,56.05
2019-02-19T08:02:07.463Z,55.39
2019-02-19T08:04:36.771Z,54.40
2019-02-19T08:07:06.122Z,53.13
2019-02-19T08:09:35.483Z,53.25
2019-02-19T08:12:04.837Z,53.08
2019-02-19T08:14:34.165Z,51.99
2019-02-19T08:17:03.628Z,51.19
2019-02-19T08:19:32.991Z,51.07
2019-02-19T08:22:02.348Z,51.06
2019-02-19T08:24:31.755Z,50.26
2019-02-19T08:27:01.053Z,49.83
2019-02-19T08:29:30.501Z,49.49
2019-02-19T08:31:59.833Z,49.34
2019-02-19T08:34:29.162Z,48.64
2019-02-19T08:36:58.521Z,48.54
2019-02-19T08:39:27.972Z,48.14
2019-02-19T08:41:57.419Z,47.77
2019-02-19T08:44:26.854Z,47.60
2019-02-19T08:46:56.232Z,47.00
2019-02-19T08:49:25.657Z,46.62
2019-02-19T08:51:56.298Z,46.57
2019-02-19T08:54:25.822Z,46.29
2019-02-19T08:56:55.246Z,46.09
2019-02-19T08:59:24.578Z,45.58
2019-02-19T09:01:53.941Z,45.16
2019-02-19T09:04:23.302Z,45.46
2019-02-19T09:06:52.652Z,44.42
2019-02-19T09:09:22.031Z,44.21
2019-02-19T09:11:51.408Z,44.80
2019-02-19T09:14:20.814Z,44.23
2019-02-19T09:16:50.183Z,44.08
2019-02-19T09:19:19.517Z,44.52
2019-02-19T09:21:49.114Z,43.57
2019-02-19T09:24:18.624Z,42.61
2019-02-19T09:26:48.344Z,43.35
2019-02-19T09:29:17.849Z,42.39
2019-02-19T09:31:47.194Z,42.14
2019-02-19T09:34:16.531Z,42.31
2019-02-19T09:36:45.901Z,42.63
2019-02-19T09:39:15.383Z,41.55
2019-02-19T09:41:44.809Z,41.55
2019-02-19T09:44:14.180Z,41.87
2019-02-19T09:46:43.536Z,42.14
2019-02-19T09:49:12.888Z,41.08
2019-02-19T09:51:42.243Z,40.79
2019-02-19T09:54:11.741Z,41.10
2019-02-19T09:56:41.321Z,39.84
2019-02-19T09:59:10.698Z,40.09
2019-02-19T10:01:40.071Z,41.13
2019-02-19T10:04:09.727Z,40.06
2019-02-19T10:06:39.064Z,39.35
2019-02-19T10:09:09.504Z,39.40
2019-02-19T10:11:38.805Z,39.18
2019-02-19T10:14:08.144Z,38.00
2019-02-19T10:16:41.573Z,37.84
2019-02-19T10:19:08.552Z,38.05
2019-02-19T10:21:37.894Z,37.16
2019-02-19T10:24:07.219Z,37.59
2019-02-19T10:26:36.603Z,36.56
2019-02-19T10:29:05.963Z,36.23
2019-02-19T10:31:35.351Z,36.68
2019-02-19T10:34:04.723Z,36.42
2019-02-19T10:36:34.074Z,36.72
2019-02-19T10:39:04.829Z,36.78
2019-02-19T10:41:34.151Z,36.53
2019-02-19T10:44:03.481Z,36.75
2019-02-19T10:46:32.841Z,36.55
2019-02-19T10:49:02.216Z,36.53
2019-02-19T10:51:31.591Z,36.84
2019-02-19T10:54:00.962Z,36.26
2019-02-19T10:56:30.366Z,37.28
2019-02-19T10:58:59.738Z,36.15
2019-02-19T11:01:29.134Z,36.16
2019-02-19T11:03:58.520Z,35.83
2019-02-19T11:06:27.849Z,34.77
2019-02-19T11:08:57.252Z,35.00
2019-02-19T11:11:26.583Z,35.02
2019-02-19T11:13:55.972Z,34.35
2019-02-19T11:16:25.349Z,33.58
2019-02-19T11:18:54.710Z,32.73
2019-02-19T11:21:24.061Z,33.19
2019-02-19T11:23:53.463Z,33.50
2019-02-19T11:26:22.818Z,33.02
2019-02-19T11:28:52.166Z,32.86
2019-02-19T11:31:22.504Z,31.82
2019-02-19T11:33:51.853Z,31.76
2019-02-19T11:36:21.208Z,31.54
2019-02-19T11:38:50.953Z,31.75
2019-02-19T11:41:20.280Z,31.67
2019-02-19T11:43:49.668Z,31.46
2019-02-19T11:46:19.045Z,32.56
2019-02-19T11:48:48.424Z,32.79
2019-02-19T11:51:17.779Z,32.13
2019-02-19T11:53:47.109Z,31.79
2019-02-19T11:56:16.495Z,31.78
2019-02-19T11:58:45.821Z,31.65
2019-02-19T12:01:15.117Z,31.33
2019-02-19T12:03:44.469Z,31.28
2019-02-19T12:06:13.807Z,31.74
2019-02-19T12:08:43.177Z,31.34
2019-02-19T12:11:12.588Z,31.03
2019-02-19T12:13:41.995Z,32.04
2019-02-19T12:16:11.355Z,31.97
2019-02-19T12:18:46.267Z,31.95
2019-02-19T12:21:11.850Z,31.08
2019-02-19T12:23:41.157Z,31.91
2019-02-19T12:26:10.500Z,31.34
2019-02-19T12:28:39.910Z,31.59
2019-02-19T12:31:09.273Z,32.11
2019-02-19T12:33:38.599Z,31.73
2019-02-19T12:36:07.955Z,31.82
2019-02-19T12:38:37.331Z,31.39
2019-02-19T12:41:06.666Z,31.52
2019-02-19T12:43:36.054Z,31.76
2019-02-19T12:46:05.383Z,32.01
2019-02-19T12:48:34.728Z,30.97
2019-02-19T12:51:04.217Z,31.17
2019-02-19T12:53:33.575Z,30.28
2019-02-19T12:56:02.935Z,30.34
2019-02-19T12:58:32.274Z,30.52
2019-02-19T13:01:01.800Z,30.87
2019-02-19T13:03:31.151Z,29.87
2019-02-19T13:06:00.605Z,29.28
2019-02-19T13:08:30.015Z,29.88
2019-02-19T13:10:59.477Z,30.23
2019-02-19T13:13:28.848Z,29.79
2019-02-19T13:15:58.198Z,29.62
2019-02-19T13:18:28.545Z,29.47
2019-02-19T13:20:57.907Z,30.11
2019-02-19T13:23:27.537Z,30.05
2019-02-19T13:25:56.935Z,30.48
2019-02-19T13:28:26.291Z,30.13
2019-02-19T13:30:55.739Z,30.09
2019-02-19T13:33:25.073Z,30.09
2019-02-19T13:35:54.454Z,30.31
2019-02-19T13:38:23.899Z,30.15
2019-02-19T13:40:53.248Z,29.98
2019-02-19T13:43:22.681Z,29.26
2019-02-19T13:45:52.040Z,29.52
2019-02-19T13:48:21.449Z,29.45
2019-02-19T13:50:50.804Z,29.94
2019-02-19T13:53:44.947Z,30.18
2019-02-19T13:56:14.739Z,30.51
2019-02-19T13:58:44.093Z,30.82
2019-02-19T14:01:13.556Z,30.80
2019-02-19T14:03:42.877Z,30.67
2019-02-19T14:06:12.304Z,30.46
2019-02-19T14:08:41.660Z,30.80
2019-02-19T14:11:10.999Z,30.50
2019-02-19T14:13:44.006Z,30.41
2019-02-19T14:16:23.612Z,30.22
2019-02-19T14:18:54.730Z,30.66
2019-02-19T14:21:40.779Z,30.90
2019-02-19T14:24:32.389Z,31.41
2019-02-19T14:27:23.568Z,31.43
2019-02-19T14:30:11.850Z,31.83
2019-02-19T14:32:56.103Z,31.36
2019-02-19T14:35:42.939Z,31.46
2019-02-19T14:38:36.762Z,31.84
2019-02-19T14:41:23.911Z,31.74
2019-02-19T14:44:21.271Z,31.73
2019-02-19T14:47:24.718Z,31.72
2019-02-19T14:50:22.002Z,31.94
2019-02-19T14:53:13.893Z,31.97
2019-02-19T14:56:20.212Z,32.14
2019-02-19T14:59:14.626Z,32.22
2019-02-19T15:02:02.870Z,32.12
2019-02-19T15:05:00.493Z,32.62
2019-02-19T15:08:07.178Z,32.36
2019-02-19T15:10:55.441Z,32.03
2019-02-19T15:13:40.707Z,32.15
2019-02-19T15:16:34.762Z,32.14
2019-02-19T15:19:19.946Z,32.17
2019-02-19T15:22:09.995Z,32.32
2019-02-19T15:25:10.423Z,32.51
2019-02-19T15:28:08.022Z,32.71
2019-02-19T15:30:55.344Z,32.85
2019-02-19T15:33:47.802Z,32.95
2019-02-19T15:36:34.700Z,33.11
2019-02-19T15:39:25.992Z,33.30
2019-02-19T15:42:12.879Z,33.66
2019-02-19T15:44:58.970Z,34.16
2019-02-19T15:47:47.390Z,34.28
2019-02-19T15:50:41.756Z,34.74
2019-02-19T15:53:26.448Z,34.87
2019-02-19T15:56:17.648Z,34.81
2019-02-19T15:59:09.919Z,35.08
2019-02-19T16:01:58.239Z,35.21
2019-02-19T16:04:46.491Z,35.34
2019-02-19T16:07:35.230Z,35.58
2019-02-19T16:10:23.660Z,35.93
2019-02-19T16:12:58.406Z,36.15
2019-02-19T16:15:45.271Z,36.29
2019-02-19T16:18:36.561Z,36.42
2019-02-19T16:21:37.216Z,36.63
2019-02-19T16:24:24.193Z,36.87
2019-02-19T16:27:09.483Z,37.16
2019-02-19T16:29:50.249Z,37.60
2019-02-19T16:32:44.433Z,38.67
2019-02-19T16:35:32.730Z,39.66
2019-02-19T16:38:20.649Z,40.33
2019-02-19T16:41:27.208Z,40.83
2019-02-19T16:44:14.303Z,41.22
2019-02-19T16:47:05.333Z,41.64
2019-02-19T16:49:52.642Z,41.94
2019-02-19T16:52:47.174Z,41.96
2019-02-19T16:55:25.541Z,42.04
2019-02-19T16:58:01.182Z,42.18
2019-02-19T17:00:50.830Z,42.31
2019-02-19T17:03:57.546Z,42.45
2019-02-19T17:06:46.321Z,42.78
2019-02-19T17:09:32.222Z,42.76
2019-02-19T17:12:16.743Z,43.02
2019-02-19T17:15:04.429Z,43.27
2019-02-19T17:17:51.575Z,44.34
2019-02-19T17:20:54.987Z,46.25
2019-02-19T17:23:38.956Z,47.08
2019-02-19T17:26:19.098Z,48.31
2019-02-19T17:28:54.657Z,49.16
2019-02-19T17:31:51.983Z,50.60
2019-02-19T17:34:38.816Z,51.09
2019-02-19T17:37:30.035Z,51.10
2019-02-19T17:40:18.292Z,51.91
2019-02-19T17:42:58.928Z,52.36
2019-02-19T17:45:53.480Z,52.61
2019-02-19T17:48:40.418Z,53.05
2019-02-19T17:51:28.661Z,53.08
2019-02-19T17:54:09.581Z,53.30
2019-02-19T17:57:09.851Z,54.01
2019-02-19T17:59:57.531Z,54.43
2019-02-19T18:02:51.614Z,54.16
2019-02-19T18:05:33.505Z,54.22
2019-02-19T18:08:33.993Z,54.46
2019-02-19T18:11:20.231Z,54.65
2019-02-19T18:14:08.526Z,54.67
2019-02-19T18:16:49.861Z,55.11
2019-02-19T18:19:19.211Z,55.16
2019-02-19T18:21:48.582Z,55.23
2019-02-19T18:24:17.968Z,55.27
2019-02-19T18:26:47.414Z,55.42
2019-02-19T18:29:17.718Z,55.46
2019-02-19T18:31:47.124Z,55.67
2019-02-19T18:34:16.510Z,55.91
2019-02-19T18:36:46.239Z,55.84
2019-02-19T18:39:15.533Z,55.94
2019-02-19T18:41:44.852Z,56.13
2019-02-19T18:44:14.194Z,56.40
2019-02-19T18:46:43.521Z,56.58
2019-02-19T18:49:12.861Z,56.85
2019-02-19T18:51:42.228Z,56.77
2019-02-19T18:54:12.058Z,57.11
2019-02-19T18:56:41.599Z,57.18
2019-02-19T18:59:11.080Z,57.51
2019-02-19T19:01:40.469Z,57.74
2019-02-19T19:04:09.887Z,57.91
2019-02-19T19:06:41.034Z,58.14
2019-02-19T19:09:10.415Z,58.25
2019-02-19T19:11:39.776Z,58.64
2019-02-19T19:14:09.247Z,58.91
2019-02-19T19:16:38.832Z,59.41
2019-02-19T19:19:08.297Z,59.90
2019-02-19T19:21:37.667Z,60.35
2019-02-19T19:24:07.099Z,60.40
2019-02-19T19:26:36.487Z,60.66
2019-02-19T19:29:05.896Z,60.65
2019-02-19T19:31:35.301Z,60.91
2019-02-19T19:34:04.712Z,60.78
2019-02-19T19:36:35.923Z,60.50
2019-02-19T19:39:06.974Z,60.55
2019-02-19T19:41:36.295Z,60.49
2019-02-19T19:44:05.708Z,60.52
2019-02-19T19:46:35.056Z,60.71
2019-02-19T19:49:04.433Z,60.84
2019-02-19T19:51:33.760Z,60.85
2019-02-19T19:54:03.109Z,60.45
2019-02-19T19:56:32.443Z,60.98
2019-02-19T19:59:01.825Z,60.05
2019-02-19T20:01:31.182Z,59.93
2019-02-19T20:04:00.655Z,60.23
2019-02-19T20:06:30.010Z,60.37
2019-02-19T20:08:59.352Z,60.31
2019-02-19T20:11:28.719Z,60.71
2019-02-19T20:14:00.331Z,60.97
2019-02-19T20:16:29.735Z,61.30
2019-02-19T20:18:59.098Z,61.45
2019-02-19T20:21:28.560Z,61.80
2019-02-19T20:23:57.893Z,61.89
2019-02-19T20:26:27.223Z,62.05
2019-02-19T20:28:56.554Z,62.14
2019-02-19T20:31:26.043Z,61.83
2019-02-19T20:33:55.385Z,61.92
2019-02-19T20:36:24.731Z,62.02
2019-02-19T20:38:54.138Z,62.40
2019-02-19T20:41:23.616Z,62.28
2019-02-19T20:43:53.006Z,62.22
2019-02-19T20:46:24.375Z,62.17
2019-02-19T20:48:54.159Z,62.15
2019-02-19T20:51:23.605Z,62.25
2019-02-19T20:53:53.906Z,62.15
2019-02-19T20:56:23.120Z,62.26
2019-02-19T20:58:52.635Z,62.52
2019-02-19T21:01:22.075Z,62.43
2019-02-19T21:03:51.501Z,62.41
2019-02-19T21:06:20.911Z,62.17
2019-02-19T21:08:50.384Z,62.03
2019-02-19T21:11:19.774Z,62.00
2019-02-19T21:13:49.328Z,61.98
2019-02-19T21:16:18.788Z,62.22
2019-02-19T21:18:48.190Z,62.19
2019-02-19T21:21:17.604Z,62.32
2019-02-19T21:23:47.098Z,62.32
2019-02-19T21:26:16.532Z,62.25
2019-02-19T21:28:45.942Z,62.21
2019-02-19T21:31:15.422Z,62.76
2019-02-19T21:33:44.833Z,62.51
2019-02-19T21:36:14.424Z,62.89
2019-02-19T21:38:43.871Z,63.80
2019-02-19T21:41:13.326Z,64.74
2019-02-19T21:43:42.919Z,64.36
2019-02-19T21:46:12.373Z,63.58
2019-02-19T21:48:48.047Z,63.23
2019-02-19T21:51:12.967Z,63.41
2019-02-19T21:53:42.487Z,63.40
2019-02-19T21:56:11.863Z,63.36
2019-02-19T21:58:41.341Z,63.50
2019-02-19T22:01:10.828Z,64.39
2019-02-19T22:03:40.176Z,63.99
2019-02-19T22:06:09.620Z,64.31
2019-02-19T22:08:39.174Z,64.50
2019-02-19T22:11:08.616Z,64.50
2019-02-19T22:13:38.098Z,64.55
2019-02-19T22:16:07.874Z,64.66
2019-02-19T22:18:37.533Z,65.36
2019-02-19T22:21:15.275Z,66.06
2019-02-19T22:23:44.710Z,66.68
2019-02-19T22:26:14.231Z,67.44
2019-02-19T22:28:43.677Z,67.12
2019-02-19T22:31:13.847Z,66.91
2019-02-19T22:33:43.699Z,67.62
2019-02-19T22:36:13.119Z,67.01
2019-02-19T22:38:42.550Z,67.10
2019-02-19T22:41:11.963Z,67.42
2019-02-19T22:43:41.469Z,67.61
2019-02-19T22:46:10.963Z,67.69
2019-02-19T22:48:40.401Z,68.00
2019-02-19T22:51:09.775Z,68.05
2019-02-19T22:53:58.117Z,68.00
2019-02-19T22:56:33.413Z,68.01
2019-02-19T22:59:02.996Z,68.33
2019-02-19T23:01:41.696Z,68.03
2019-02-19T23:04:11.237Z,67.86
2019-02-19T23:06:40.669Z,67.77
2019-02-19T23:09:10.226Z,67.83
2019-02-19T23:11:39.595Z,68.68
2019-02-19T23:14:09.124Z,68.71
2019-02-19T23:16:38.628Z,69.10
2019-02-19T23:19:08.094Z,69.43
2019-02-19T23:21:37.528Z,69.50
2019-02-19T23:24:07.043Z,69.89
2019-02-19T23:26:36.407Z,69.96
2019-02-19T23:29:05.819Z,69.89
2019-02-19T23:31:35.371Z,70.44
2019-02-19T23:34:05.614Z,70.71
2019-02-19T23:36:45.503Z,71.25
2019-02-19T23:39:15.153Z,71.25
2019-02-19T23:41:44.578Z,70.38
2019-02-19T23:44:14.018Z,70.98
2019-02-19T23:46:44.078Z,70.98
2019-02-19T23:49:13.582Z,70.81
2019-02-19T23:51:42.922Z,70.74
2019-02-19T23:54:12.353Z,71.11
2019-02-19T23:56:41.778Z,71.60
2019-02-19T23:59:11.539Z,71.84
